地図

経路データ

SID SEASON NUMBER BASIN SUBBASIN NAME ISO_TIME NATURE LAT LON WMO_WIND WMO_PRES WMO_AGENCY TRACK_TYPE DIST2LAND LANDFALL IFLAG USA_AGENCY USA_ATCF_ID USA_LAT USA_LON USA_RECORD USA_STATUS USA_WIND USA_PRES USA_SSHS USA_R34_NE USA_R34_SE USA_R34_SW USA_R34_NW USA_R50_NE USA_R50_SE USA_R50_SW USA_R50_NW USA_R64_NE USA_R64_SE USA_R64_SW USA_R64_NW USA_POCI USA_ROCI USA_RMW USA_EYE TOKYO_LAT TOKYO_LON TOKYO_GRADE TOKYO_WIND TOKYO_PRES TOKYO_R50_DIR TOKYO_R50_LONG TOKYO_R50_SHORT TOKYO_R30_DIR TOKYO_R30_LONG TOKYO_R30_SHORT TOKYO_LAND CMA_LAT CMA_LON CMA_CAT CMA_WIND CMA_PRES HKO_LAT HKO_LON HKO_CAT HKO_WIND HKO_PRES NEWDELHI_LAT NEWDELHI_LON NEWDELHI_GRADE NEWDELHI_WIND NEWDELHI_PRES NEWDELHI_CI NEWDELHI_DP NEWDELHI_POCI REUNION_LAT REUNION_LON REUNION_TYPE REUNION_WIND REUNION_PRES REUNION_TNUM REUNION_CI REUNION_RMW REUNION_R34_NE REUNION_R34_SE REUNION_R34_SW REUNION_R34_NW REUNION_R50_NE REUNION_R50_SE REUNION_R50_SW REUNION_R50_NW REUNION_R64_NE REUNION_R64_SE REUNION_R64_SW REUNION_R64_NW BOM_LAT BOM_LON BOM_TYPE BOM_WIND BOM_PRES BOM_TNUM BOM_CI BOM_RMW BOM_R34_NE BOM_R34_SE BOM_R34_SW BOM_R34_NW BOM_R50_NE BOM_R50_SE BOM_R50_SW BOM_R50_NW BOM_R64_NE BOM_R64_SE BOM_R64_SW BOM_R64_NW BOM_ROCI BOM_POCI BOM_EYE BOM_POS_METHOD BOM_PRES_METHOD NADI_LAT NADI_LON NADI_CAT NADI_WIND NADI_PRES WELLINGTON_LAT WELLINGTON_LON WELLINGTON_WIND WELLINGTON_PRES DS824_LAT DS824_LON DS824_STAGE DS824_WIND DS824_PRES TD9636_LAT TD9636_LON TD9636_STAGE TD9636_WIND TD9636_PRES TD9635_LAT TD9635_LON TD9635_WIND TD9635_PRES TD9635_ROCI NEUMANN_LAT NEUMANN_LON NEUMANN_CLASS NEUMANN_WIND NEUMANN_PRES MLC_LAT MLC_LON MLC_CLASS MLC_WIND MLC_PRES USA_GUST BOM_GUST BOM_GUST_PER REUNION_GUST REUNION_GUST_PER USA_SEAHGT USA_SEARAD_NE USA_SEARAD_SE USA_SEARAD_SW USA_SEARAD_NW STORM_SPEED STORM_DIR
1951003N31302 1951 1 NA NA NOT_NAMED 1951-01-02 12:00:00 ET 30.5000 -58.0000 50 hurdat_atl main 1554 1549 O_____________ hurdat_atl AL011951 30.5000 -58.0000 EX 50 -4 12 119
1951003N31302 1951 1 NA NA NOT_NAMED 1951-01-02 15:00:00 ET 30.2155 -57.3943 main 1556 1553 P_____________ AL011951 30.2155 -57.3943 EX 47 -4 12 120
1951003N31302 1951 1 NA NA NOT_NAMED 1951-01-02 18:00:00 ET 29.9000 -56.8000 45 hurdat_atl main 1563 1557 O_____________ hurdat_atl AL011951 29.9000 -56.8000 EX 45 -4 12 125
1951003N31302 1951 1 NA NA NOT_NAMED 1951-01-02 21:00:00 ET 29.5173 -56.2281 main 1563 1553 P_____________ AL011951 29.5173 -56.2281 EX 45 -4 13 133
1951003N31302 1951 1 NA NA NOT_NAMED 1951-01-03 00:00:00 ET 29.0000 -55.7000 45 hurdat_atl main 1553 1531 O_____________ hurdat_atl AL011951 29.0000 -55.7000 EX 45 -4 16 144
1951003N31302 1951 1 NA NA NOT_NAMED 1951-01-03 03:00:00 ET 28.2575 -55.1891 main 1531 1500 P_____________ AL011951 28.2575 -55.1891 EX 45 -4 17 152
1951003N31302 1951 1 NA NA NOT_NAMED 1951-01-03 06:00:00 ET 27.5000 -54.8000 45 hurdat_atl main 1500 1480 O_____________ hurdat_atl AL011951 27.5000 -54.8000 EX 45 -4 15 156
1951003N31302 1951 1 NA NA NOT_NAMED 1951-01-03 09:00:00 ET 26.9172 -54.5304 main 1481 1454 P_____________ AL011951 26.9172 -54.5304 EX 45 -4 10 165
1951003N31302 1951 1 NA NA NOT_NAMED 1951-01-03 12:00:00 ET 26.5000 -54.5000 45 hurdat_atl main 1454 1425 O_____________ hurdat_atl AL011951 26.5000 -54.5000 EX 45 -4 7 197
1951003N31302 1951 1 NA NA NOT_NAMED 1951-01-03 15:00:00 ET 26.2476 -54.7603 main 1410 1372 P_____________ AL011951 26.2476 -54.7603 EX 45 -4 7 237
1951003N31302 1951 1 NA NA NOT_NAMED 1951-01-03 18:00:00 ET 26.1000 -55.2000 45 hurdat_atl main 1372 1333 O_____________ hurdat_atl AL011951 26.1000 -55.2000 EX 45 -4 8 249
1951003N31302 1951 1 NA NA NOT_NAMED 1951-01-03 21:00:00 ET 25.9425 -55.6349 main 1326 1280 P_____________ AL011951 25.9425 -55.6349 EX 45 -4 9 250
1951003N31302 1951 1 NA NA NOT_NAMED 1951-01-04 00:00:00 ET 25.8000 -56.1000 45 hurdat_atl main 1280 1242 O_____________ hurdat_atl AL011951 25.8000 -56.1000 EX 45 -4 9 251
1951003N31302 1951 1 NA NA NOT_NAMED 1951-01-04 03:00:00 ET 25.6574 -56.5498 main 1242 1189 P_____________ AL011951 25.6574 -56.5498 EX 45 -4 9 250
1951003N31302 1951 1 NA NA NOT_NAMED 1951-01-04 06:00:00 ET 25.5000 -57.0000 45 hurdat_atl main 1189 1151 O_____________ hurdat_atl AL011951 25.5000 -57.0000 EX 45 -4 9 250
1951003N31302 1951 1 NA NA NOT_NAMED 1951-01-04 09:00:00 ET 25.3598 -57.4418 main 1151 1091 P_____________ AL011951 25.3598 -57.4418 EX 45 -4 9 244
1951003N31302 1951 1 NA NA NOT_NAMED 1951-01-04 12:00:00 ET 25.1000 -57.9000 45 hurdat_atl main 1091 1016 O_____________ hurdat_atl AL011951 25.1000 -57.9000 EX 45 -4 11 229
1951003N31302 1951 1 NA NA NOT_NAMED 1951-01-04 15:00:00 ET 24.6173 -58.3850 main 1016 934 P_____________ AL011951 24.6173 -58.3850 EX 45 -4 14 220
1951003N31302 1951 1 NA NA NOT_NAMED 1951-01-04 18:00:00 TS 24.0000 -58.9000 45 hurdat_atl main 934 845 O_____________ hurdat_atl AL011951 24.0000 -58.9000 TS 45 0 16 217
1951003N31302 1951 1 NA NA NOT_NAMED 1951-01-04 21:00:00 TS 23.3127 -59.4731 main 837 755 P_____________ AL011951 23.3127 -59.4731 TS 45 0 17 218
1951003N31302 1951 1 NA NA NOT_NAMED 1951-01-05 00:00:00 TS 22.7000 -60.0000 45 hurdat_atl main 755 695 O_____________ hurdat_atl AL011951 22.7000 -60.0000 TS 45 0 13 221
1951003N31302 1951 1 NA NA NOT_NAMED 1951-01-05 03:00:00 TS 22.3323 -60.4018 main 695 657 P_____________ AL011951 22.3323 -60.4018 TS 45 0 9 227
1951003N31302 1951 1 NA NA NOT_NAMED 1951-01-05 06:00:00 TS 22.1000 -60.7000 45 hurdat_atl main 657 627 O_____________ hurdat_atl AL011951 22.1000 -60.7000 TS 45 0 7 227
1951003N31302 1951 1 NA NA NOT_NAMED 1951-01-05 09:00:00 TS 21.8699 -60.9373 main 627 597 P_____________ AL011951 21.8699 -60.9373 TS 45 0 5 223
1951003N31302 1951 1 NA NA NOT_NAMED 1951-01-05 12:00:00 TS 21.7000 -61.1000 45 hurdat_atl main 597 582 O_____________ hurdat_atl AL011951 21.7000 -61.1000 TS 45 0 4 222
1951003N31302 1951 1 NA NA NOT_NAMED 1951-01-05 15:00:00 TS 21.5850 -61.2149 main 582 567 P_____________ AL011951 21.5850 -61.2149 TS 45 0 3 223
1951003N31302 1951 1 NA NA NOT_NAMED 1951-01-05 18:00:00 TS 21.5000 -61.3000 45 hurdat_atl main 567 552 O_____________ hurdat_atl AL011951 21.5000 -61.3000 TS 45 0 2 224
1951003N31302 1951 1 NA NA NOT_NAMED 1951-01-05 21:00:00 TS 21.4075 -61.4000 main 552 537 P_____________ AL011951 21.4075 -61.4000 TS 47 0 3 223
1951003N31302 1951 1 NA NA NOT_NAMED 1951-01-06 00:00:00 TS 21.3000 -61.5000 50 hurdat_atl main 537 522 O_____________ hurdat_atl AL011951 21.3000 -61.5000 TS 50 0 3 216
1951003N31302 1951 1 NA NA NOT_NAMED 1951-01-06 03:00:00 TS 21.1575 -61.5925 main 522 501 P_____________ AL011951 21.1575 -61.5925 TS 50 0 4 211
1951003N31302 1951 1 NA NA NOT_NAMED 1951-01-06 06:00:00 TS 21.0000 -61.7000 50 hurdat_atl main 501 486 O_____________ hurdat_atl AL011951 21.0000 -61.7000 TS 50 0 4 217
1951003N31302 1951 1 NA NA NOT_NAMED 1951-01-06 09:00:00 TS 20.8575 -61.8349 main 486 456 P_____________ AL011951 20.8575 -61.8349 TS 52 0 4 223
1951003N31302 1951 1 NA NA NOT_NAMED 1951-01-06 12:00:00 TS 20.7000 -62.0000 55 hurdat_atl main 456 426 O_____________ hurdat_atl AL011951 20.7000 -62.0000 TS 55 0 5 221
1951003N31302 1951 1 NA NA NOT_NAMED 1951-01-06 15:00:00 TS 20.4850 -62.1851 main 426 397 P_____________ AL011951 20.4850 -62.1851 TS 55 0 6 223
1951003N31302 1951 1 NA NA NOT_NAMED 1951-01-06 18:00:00 TS 20.3000 -62.4000 55 hurdat_atl main 397 373 O_____________ hurdat_atl AL011951 20.3000 -62.4000 TS 55 0 5 237
1951003N31302 1951 1 NA NA NOT_NAMED 1951-01-06 21:00:00 TS 20.2199 -62.6199 main 373 347 P_____________ AL011951 20.2199 -62.6199 TS 55 0 5 258
1951003N31302 1951 1 NA NA NOT_NAMED 1951-01-07 00:00:00 TS 20.2000 -62.9000 55 hurdat_atl main 347 314 O_____________ hurdat_atl AL011951 20.2000 -62.9000 TS 55 0 6 265
1951003N31302 1951 1 NA NA NOT_NAMED 1951-01-07 03:00:00 TS 20.1625 -63.2777 main 314 283 P_____________ AL011951 20.1625 -63.2777 TS 55 0 8 270
1951003N31302 1951 1 NA NA NOT_NAMED 1951-01-07 06:00:00 TS 20.2000 -63.7000 55 hurdat_atl main 283 264 O_____________ hurdat_atl AL011951 20.2000 -63.7000 TS 55 0 8 285
1951003N31302 1951 1 NA NA NOT_NAMED 1951-01-07 09:00:00 TS 20.3700 -64.1073 main 273 266 P_____________ AL011951 20.3700 -64.1073 TS 55 0 9 298
1951003N31302 1951 1 NA NA NOT_NAMED 1951-01-07 12:00:00 TS 20.6000 -64.5000 55 hurdat_atl main 271 267 O_____________ hurdat_atl AL011951 20.6000 -64.5000 TS 55 0 8 302
1951003N31302 1951 1 NA NA NOT_NAMED 1951-01-07 15:00:00 TS 20.8074 -64.8650 main 278 278 P_____________ AL011951 20.8074 -64.8650 TS 55 0 8 301
1951003N31302 1951 1 NA NA NOT_NAMED 1951-01-07 18:00:00 TS 21.0000 -65.2000 55 hurdat_atl main 293 292 O_____________ hurdat_atl AL011951 21.0000 -65.2000 TS 55 0 7 300
1951003N31302 1951 1 NA NA NOT_NAMED 1951-01-07 21:00:00 TS 21.1575 -65.5226 main 313 313 P_____________ AL011951 21.1575 -65.5226 TS 55 0 6 298
1951003N31302 1951 1 NA NA NOT_NAMED 1951-01-08 00:00:00 TS 21.3000 -65.8000 55 hurdat_atl main 324 324 O_____________ hurdat_atl AL011951 21.3000 -65.8000 TS 55 0 6 302
1951003N31302 1951 1 NA NA NOT_NAMED 1951-01-08 03:00:00 TS 21.4499 -66.0226 main 335 335 P_____________ AL011951 21.4499 -66.0226 TS 55 0 5 309
1951003N31302 1951 1 NA NA NOT_NAMED 1951-01-08 06:00:00 TS 21.6000 -66.2000 55 hurdat_atl main 357 357 O_____________ hurdat_atl AL011951 21.6000 -66.2000 TS 55 0 4 311
1951003N31302 1951 1 NA NA NOT_NAMED 1951-01-08 09:00:00 TS 21.7425 -66.3800 main 369 369 P_____________ AL011951 21.7425 -66.3800 TS 52 0 4 317
1951003N31302 1951 1 NA NA NOT_NAMED 1951-01-08 12:00:00 TS 21.9000 -66.5000 50 hurdat_atl main 391 391 O_____________ hurdat_atl AL011951 21.9000 -66.5000 TS 50 0 4 335
1951003N31302 1951 1 NA NA NOT_NAMED 1951-01-08 15:00:00 TS 22.0699 -66.5524 main 413 413 P_____________ AL011951 22.0699 -66.5524 TS 50 0 4 0
1951003N31302 1951 1 NA NA NOT_NAMED 1951-01-08 18:00:00 TS 22.3000 -66.5000 50 hurdat_atl main 436 436 O_____________ hurdat_atl AL011951 22.3000 -66.5000 TS 50 0 6 21
1951003N31302 1951 1 NA NA NOT_NAMED 1951-01-08 21:00:00 TS 22.5825 -66.3447 main 469 469 P_____________ AL011951 22.5825 -66.3447 TS 50 0 8 28
1951003N31302 1951 1 NA NA NOT_NAMED 1951-01-09 00:00:00 TS 23.0000 -66.1000 50 hurdat_atl main 514 514 O_____________ hurdat_atl AL011951 23.0000 -66.1000 TS 50 0 11 26
1951003N31302 1951 1 NA NA NOT_NAMED 1951-01-09 03:00:00 TS 23.5751 -65.8149 main 581 581 P_____________ AL011951 23.5751 -65.8149 TS 50 0 14 23
1951003N31302 1951 1 NA NA NOT_NAMED 1951-01-09 06:00:00 TS 24.3000 -65.5000 50 hurdat_atl main 659 659 O_____________ hurdat_atl AL011951 24.3000 -65.5000 TS 50 0 17 20
1951003N31302 1951 1 NA NA NOT_NAMED 1951-01-09 09:00:00 TS 25.1349 -65.2073 main 750 750 P_____________ AL011951 25.1349 -65.2073 TS 50 0 18 18
1951003N31302 1951 1 NA NA NOT_NAMED 1951-01-09 12:00:00 TS 26.0000 -64.9000 50 hurdat_atl main 852 852 O_____________ hurdat_atl AL011951 26.0000 -64.9000 TS 50 0 17 19
1951003N31302 1951 1 NA NA NOT_NAMED 1951-01-09 15:00:00 TS 26.7724 -64.5645 main 944 944 P_____________ AL011951 26.7724 -64.5645 TS 50 0 16 23
1951003N31302 1951 1 NA NA NOT_NAMED 1951-01-09 18:00:00 TS 27.5000 -64.2000 50 hurdat_atl main 1027 1027 O_____________ hurdat_atl AL011951 27.5000 -64.2000 TS 50 0 16 24
1951003N31302 1951 1 NA NA NOT_NAMED 1951-01-09 21:00:00 TS 28.1846 -63.8434 main 1110 1110 P_____________ AL011951 28.1846 -63.8434 TS 50 0 16 27
1951003N31302 1951 1 NA NA NOT_NAMED 1951-01-10 00:00:00 ET 28.9000 -63.4000 50 hurdat_atl main 1194 1194 O_____________ hurdat_atl AL011951 28.9000 -63.4000 EX 50 -4 18 31
1951003N31302 1951 1 NA NA NOT_NAMED 1951-01-10 03:00:00 ET 29.7049 -62.8089 main 1294 1294 P_____________ AL011951 29.7049 -62.8089 EX 50 -4 20 34
1951003N31302 1951 1 NA NA NOT_NAMED 1951-01-10 06:00:00 ET 30.6000 -62.1000 50 hurdat_atl main 1371 1359 O_____________ hurdat_atl AL011951 30.6000 -62.1000 EX 50 -4 23 34
1951003N31302 1951 1 NA NA NOT_NAMED 1951-01-10 09:00:00 ET 31.6073 -61.3300 main 1364 1291 P_____________ AL011951 31.6073 -61.3300 EX 50 -4 24 34
1951003N31302 1951 1 NA NA NOT_NAMED 1951-01-10 12:00:00 ET 32.6000 -60.5000 50 hurdat_atl main 1283 1224 O_____________ hurdat_atl AL011951 32.6000 -60.5000 EX 50 -4 23 37
1951003N31302 1951 1 NA NA NOT_NAMED 1951-01-10 15:00:00 ET 33.4746 -59.6494 main 1217 1176 P_____________ AL011951 33.4746 -59.6494 EX 50 -4 21 42
1951003N31302 1951 1 NA NA NOT_NAMED 1951-01-10 18:00:00 ET 34.2000 -58.8000 50 hurdat_atl main 1176 1162 O_____________ hurdat_atl AL011951 34.2000 -58.8000 EX 50 -4 18 49
1951003N31302 1951 1 NA NA NOT_NAMED 1951-01-10 21:00:00 ET 34.6842 -57.9956 main 1162 1153 P_____________ AL011951 34.6842 -57.9956 EX 50 -4 17 53
1951003N31302 1951 1 NA NA NOT_NAMED 1951-01-11 00:00:00 ET 35.2000 -57.2000 50 hurdat_atl main 1154 1096 O_____________ hurdat_atl AL011951 35.2000 -57.2000 EX 50 -4 19 45
1951003N31302 1951 1 NA NA NOT_NAMED 1951-01-11 03:00:00 ET 36.0242 -56.3786 main 1096 1030 P_____________ AL011951 36.0242 -56.3786 EX 50 -4 23 37
1951003N31302 1951 1 NA NA NOT_NAMED 1951-01-11 06:00:00 ET 37.0000 -55.5000 50 hurdat_atl main 1024 969 O_____________ hurdat_atl AL011951 37.0000 -55.5000 EX 50 -4 24 37
1951003N31302 1951 1 NA NA NOT_NAMED 1951-01-11 09:00:00 ET 37.9606 -54.5773 main 959 856 P_____________ AL011951 37.9606 -54.5773 EX 47 -4 25 38
1951003N31302 1951 1 NA NA NOT_NAMED 1951-01-11 12:00:00 ET 39.0000 -53.5000 45 hurdat_atl main 845 726 O_____________ hurdat_atl AL011951 39.0000 -53.5000 EX 45 -4 29 40
1951003N31302 1951 1 NA NA NOT_NAMED 1951-01-11 15:00:00 ET 40.2105 -52.1574 main 716 627 P_____________ AL011951 40.2105 -52.1574 EX 45 -4 31 43
1951003N31302 1951 1 NA NA NOT_NAMED 1951-01-11 18:00:00 ET 41.3000 -50.7000 45 hurdat_atl main 621 591 O_____________ hurdat_atl AL011951 41.3000 -50.7000 EX 45 -4 28 50
1951003N31302 1951 1 NA NA NOT_NAMED 1951-01-11 21:00:00 ET 41.9871 -49.3570 main 593 591 P_____________ AL011951 41.9871 -49.3570 EX 45 -4 23 59
1951003N31302 1951 1 NA NA NOT_NAMED 1951-01-12 00:00:00 ET 42.5000 -48.0000 45 hurdat_atl main 613 613 O_____________ hurdat_atl AL011951 42.5000 -48.0000 EX 45 -4 23 62
1951003N31302 1951 1 NA NA NOT_NAMED 1951-01-12 03:00:00 ET 43.0532 -46.5925 main 647 647 P_____________ AL011951 43.0532 -46.5925 EX 42 -4 24 63
1951003N31302 1951 1 NA NA NOT_NAMED 1951-01-12 06:00:00 ET 43.6000 -45.0000 40 hurdat_atl main 717 717 O_____________ hurdat_atl AL011951 43.6000 -45.0000 EX 40 -4 28 66
1951003N31302 1951 1 NA NA NOT_NAMED 1951-01-12 09:00:00 ET 44.1571 -43.1021 main 818 818 P_____________ AL011951 44.1571 -43.1021 EX 40 -4 31 69
1951003N31302 1951 1 NA NA NOT_NAMED 1951-01-12 12:00:00 ET 44.7000 -41.0000 40 hurdat_atl main 942 O_____________ hurdat_atl AL011951 44.7000 -41.0000 EX 40 -4 32 70

IBTrACS Databaseについて

本データベースは、米国NOAAが公開する1842年以降の世界の熱帯低気圧のベストトラックデータアーカイブInternational Best Track Archive for Climate Stewardship (IBTrACS)を、ウェブで閲覧しやすい形式に変換したものです。

最終更新日:2021-10-19